Airfield :
LOGIN :

Register | Disclaimer

   EN    FR    IT 

 










Legend :    VFR   Marginal VFR   IFR   Intensive IFR   Very Intensive IFR
Visi :
Ceiling :
>= 8 km
>= 3000ft
5 to 8 km
1000 to 3000 ft
1500m to 5 km
500 to 1000 ft
800 to 1500m
200 to 500 ft
< 800m
< 200 ft
Symbols :   Thunderstorms  Fog  Heavy snow  Heavy precipitations  Wind > 20 kt
SIGMETs :     Misc.  Thunderstorms  Icing  Turbulence  Mountain Waves  Volcanic Ashes







- Airport Elevation : 1416 ft
- IATA code : ZRH


LSZH - Zurich

CURRENT METAR :
  • 241320Z 36004KT 290V080 9999 FEW025 23/16 Q1021 NOSIG

EXPIRED METARs :
  • 241250Z VRB02KT 9999 FEW024 22/15 Q1021 NOSIG
  • 241220Z VRB03KT 9999 FEW023 22/16 Q1021 NOSIG
  • 241150Z 36003KT 260V070 9999 SCT022 21/15 Q1022 NOSIG
  • 241120Z 33004KT 280V020 9999 FEW018 SCT024 21/16 Q1022 NOSIG
  • 241050Z 31004KT 250V030 9999 FEW016 BKN022 20/15 Q1022 NOSIG

TAF TAF LSZH
Valid from the 24 at 12:00 until the 25 at 18:00 UTC


241125Z 2412/2518 31004KT 9999 FEW016 BKN022 TX25/2415Z TN13/2504Z TX28/2515Z
BECMG 2414/2417 CAVOK
PROB40
TEMPO 2415/2419 05005KT
BECMG 2500/2502 2000 BCFG NSC
BECMG 2502/2504 0800 PRFG SCT002
PROB40 2503/2507 0400 FG VV002
BECMG 2507/2509 4000 BR BKN007
BECMG 2509/2512 CAVOK
ATIS : +41 43 816 2295 (DEP) +41 43 816 2294 (ARR)
No reported NOTAMs for that airfield.



MET'MAP, your aeronautical weather chart ! - Copyright ORBIFLY December 2007 - Disclaimer

ORBIFLY MET'MAP TEAM :

Programming & Development : Alexandra Zaïnal
Concept & Development : Baudouin d'Aumeries
Co-Development & Prog : Marc-Olivier Méhu
Technical & hardware support : Manuel Goepfert

Contact : metmap@orbifly.com




SOURCES & CREDITS :

   NOAA